createdAt,value
2023-04-09T00:01:51.329Z,102713.03
2023-04-09T00:04:19.498Z,102709.19
2023-04-09T00:06:47.857Z,102711.94
2023-04-09T00:09:16.263Z,102708.41
2023-04-09T00:11:44.614Z,102709.66
2023-04-09T00:14:13.988Z,102706.88
2023-04-09T00:16:43.982Z,102709.72
2023-04-09T00:19:13.019Z,102708.22
2023-04-09T00:21:41.373Z,102709.84
2023-04-09T00:24:09.755Z,102708.16
2023-04-09T00:26:40.408Z,102704.81
2023-04-09T00:29:09.685Z,102703.72
2023-04-09T00:31:39.716Z,102703.53
2023-04-09T00:34:07.686Z,102703.78
2023-04-09T00:36:35.795Z,102706.00
2023-04-09T00:39:05.998Z,102703.31
2023-04-09T00:41:34.600Z,102700.38
2023-04-09T00:44:05.657Z,102704.31
2023-04-09T00:46:35.138Z,102700.91
2023-04-09T00:49:05.755Z,102709.09
2023-04-09T00:51:34.722Z,102700.13
2023-04-09T00:54:02.896Z,102704.66
2023-04-09T00:56:31.528Z,102701.16
2023-04-09T00:59:00.268Z,102702.00
2023-04-09T01:01:28.328Z,102701.16
2023-04-09T01:03:56.745Z,102699.09
2023-04-09T01:06:34.016Z,102703.38
2023-04-09T01:09:07.150Z,102698.34
2023-04-09T01:11:43.714Z,102706.66
2023-04-09T01:14:21.273Z,102703.81
2023-04-09T01:16:57.093Z,102698.34
2023-04-09T01:19:42.588Z,102698.13
2023-04-09T01:22:24.453Z,102701.44
2023-04-09T01:25:10.821Z,102695.72
2023-04-09T01:27:48.615Z,102703.25
2023-04-09T01:30:20.524Z,102705.78
2023-04-09T01:32:49.366Z,102702.00
2023-04-09T01:35:17.867Z,102699.13
2023-04-09T01:37:46.128Z,102694.63
2023-04-09T01:40:14.622Z,102700.72
2023-04-09T01:42:42.964Z,102693.56
2023-04-09T01:45:13.434Z,102694.44
2023-04-09T01:47:43.258Z,102695.34
2023-04-09T01:50:12.206Z,102697.16
2023-04-09T01:52:40.489Z,102690.63
2023-04-09T01:55:09.672Z,102686.28
2023-04-09T01:57:37.860Z,102688.94
2023-04-09T02:00:09.642Z,102694.28
2023-04-09T02:02:43.940Z,102682.78
2023-04-09T02:05:19.555Z,102685.50
2023-04-09T02:07:49.862Z,102687.97
2023-04-09T02:10:21.736Z,102680.13
2023-04-09T02:12:52.769Z,102679.50
2023-04-09T02:15:22.831Z,102678.34
2023-04-09T02:17:51.489Z,102676.56
2023-04-09T02:20:22.067Z,102673.25
2023-04-09T02:22:50.326Z,102673.19
2023-04-09T02:25:18.393Z,102671.09
2023-04-09T02:27:46.495Z,102673.91
2023-04-09T02:30:14.647Z,102666.03
2023-04-09T02:32:42.826Z,102669.41
2023-04-09T02:35:11.726Z,102672.91
2023-04-09T02:37:41.566Z,102678.13
2023-04-09T02:40:11.114Z,102672.66
2023-04-09T02:42:39.147Z,102662.38
2023-04-09T02:45:08.599Z,102663.97
2023-04-09T02:47:36.698Z,102656.31
2023-04-09T02:50:05.065Z,102661.53
2023-04-09T02:52:33.147Z,102651.44
2023-04-09T02:55:02.550Z,102655.88
2023-04-09T02:57:30.617Z,102657.66
2023-04-09T02:59:58.659Z,102653.47
2023-04-09T03:02:26.828Z,102646.72
2023-04-09T03:04:54.972Z,102648.59
2023-04-09T03:07:23.904Z,102647.69
2023-04-09T03:09:51.869Z,102649.66
2023-04-09T03:12:21.366Z,102650.47
2023-04-09T03:14:49.585Z,102644.19
2023-04-09T03:17:17.544Z,102644.19
2023-04-09T03:19:45.762Z,102643.78
2023-04-09T03:22:13.904Z,102643.78
2023-04-09T03:24:41.887Z,102638.28
2023-04-09T03:27:09.917Z,102639.88
2023-04-09T03:29:39.610Z,102637.75
2023-04-09T03:32:07.806Z,102638.03
2023-04-09T03:34:35.901Z,102637.84
2023-04-09T03:37:03.945Z,102625.03
2023-04-09T03:39:32.109Z,102629.34
2023-04-09T03:42:01.924Z,102638.44
2023-04-09T03:44:30.366Z,102628.38
2023-04-09T03:46:59.937Z,102641.94
2023-04-09T03:49:28.002Z,102637.25
2023-04-09T03:51:56.121Z,102635.50
2023-04-09T03:54:24.125Z,102637.94
2023-04-09T03:56:52.182Z,102635.72
2023-04-09T03:59:20.368Z,102640.22
2023-04-09T04:01:48.449Z,102647.94
2023-04-09T04:04:19.386Z,102641.03
2023-04-09T04:06:48.579Z,102647.00
2023-04-09T04:09:16.997Z,102649.28
2023-04-09T04:11:45.157Z,102653.56
2023-04-09T04:14:13.318Z,102647.66
2023-04-09T04:16:42.427Z,102646.56
2023-04-09T04:19:10.990Z,102646.22
2023-04-09T04:21:40.320Z,102648.69
2023-04-09T04:24:08.433Z,102655.25
2023-04-09T04:26:36.818Z,102650.75
2023-04-09T04:29:04.901Z,102649.97
2023-04-09T04:31:33.054Z,102649.78
2023-04-09T04:34:01.149Z,102657.22
2023-04-09T04:36:29.225Z,102658.84
2023-04-09T04:38:58.601Z,102654.75
2023-04-09T04:41:26.950Z,102663.44
2023-04-09T04:43:55.029Z,102656.22
2023-04-09T04:46:23.200Z,102658.34
2023-04-09T04:48:51.559Z,102652.50
2023-04-09T04:51:19.779Z,102655.81
2023-04-09T04:53:48.059Z,102651.59
2023-04-09T04:56:17.888Z,102654.94
2023-04-09T04:58:47.463Z,102651.09
2023-04-09T05:01:19.006Z,102660.56
2023-04-09T05:03:47.353Z,102656.94
2023-04-09T05:06:15.516Z,102658.41
2023-04-09T05:08:43.580Z,102666.38
2023-04-09T05:11:22.317Z,102659.75
2023-04-09T05:13:50.380Z,102658.75
2023-04-09T05:16:18.963Z,102662.09
2023-04-09T05:18:47.526Z,102667.25
2023-04-09T05:21:15.461Z,102662.44
2023-04-09T05:23:44.022Z,102667.59
2023-04-09T05:26:12.180Z,102663.00
2023-04-09T05:28:41.638Z,102665.53
2023-04-09T05:31:13.371Z,102667.16
2023-04-09T05:33:42.102Z,102669.72
2023-04-09T05:36:10.312Z,102666.16
2023-04-09T05:38:38.247Z,102672.50
2023-04-09T05:41:06.350Z,102663.72
2023-04-09T05:43:34.397Z,102669.81
2023-04-09T05:46:04.732Z,102671.50
2023-04-09T05:48:32.970Z,102668.84
2023-04-09T05:51:01.606Z,102680.34
2023-04-09T05:53:29.666Z,102673.81
2023-04-09T05:55:57.628Z,102671.09
2023-04-09T05:58:25.609Z,102678.97
2023-04-09T06:00:53.681Z,102674.81
2023-04-09T06:03:23.066Z,102676.75
2023-04-09T06:05:51.216Z,102676.69
2023-04-09T06:08:19.730Z,102677.66
2023-04-09T06:10:47.988Z,102682.16
2023-04-09T06:13:16.183Z,102683.03
2023-04-09T06:15:44.314Z,102681.22
2023-04-09T06:18:12.280Z,102681.00
2023-04-09T06:20:41.715Z,102677.31
2023-04-09T06:23:09.688Z,102683.50
2023-04-09T06:25:37.744Z,102684.03
2023-04-09T06:28:06.077Z,102688.56
2023-04-09T06:30:35.940Z,102692.97
2023-04-09T06:33:04.435Z,102697.34
2023-04-09T06:35:32.682Z,102691.59
2023-04-09T06:38:02.704Z,102692.97
2023-04-09T06:40:31.324Z,102685.44
2023-04-09T06:42:59.285Z,102696.31
2023-04-09T06:45:27.652Z,102695.63
2023-04-09T06:47:56.975Z,102693.59
2023-04-09T06:50:25.005Z,102697.94
2023-04-09T06:52:53.717Z,102700.13
2023-04-09T06:55:23.106Z,102702.50
2023-04-09T06:57:51.031Z,102707.22
2023-04-09T07:00:19.425Z,102701.38
2023-04-09T07:02:47.678Z,102698.81
2023-04-09T07:05:15.722Z,102700.69
2023-04-09T07:07:44.125Z,102702.22
2023-04-09T07:10:12.413Z,102694.78
2023-04-09T07:12:41.846Z,102700.84
2023-04-09T07:15:10.361Z,102705.09
2023-04-09T07:17:38.584Z,102702.47
2023-04-09T07:20:07.562Z,102700.31
2023-04-09T07:22:36.303Z,102698.25
2023-04-09T07:25:04.264Z,102701.41
2023-04-09T07:27:32.575Z,102709.34
2023-04-09T07:30:03.268Z,102699.84
2023-04-09T07:32:31.588Z,102699.34
2023-04-09T07:34:59.771Z,102710.91
2023-04-09T07:37:28.202Z,102710.41
2023-04-09T07:39:56.620Z,102705.00
2023-04-09T07:42:24.862Z,102709.78
2023-04-09T07:44:52.829Z,102708.16
2023-04-09T07:47:23.196Z,102704.56
2023-04-09T07:49:51.442Z,102707.06
2023-04-09T07:52:20.258Z,102700.22
2023-04-09T07:54:48.274Z,102707.16
2023-04-09T07:57:16.463Z,102704.25
2023-04-09T07:59:44.685Z,102702.16
2023-04-09T08:02:15.032Z,102706.72
2023-04-09T08:04:45.035Z,102696.63
2023-04-09T08:07:14.972Z,102696.50
2023-04-09T08:09:43.025Z,102702.03
2023-04-09T08:12:11.157Z,102694.97
2023-04-09T08:14:39.086Z,102705.81
2023-04-09T08:17:07.082Z,102698.50
2023-04-09T08:19:35.104Z,102703.50
2023-04-09T08:22:04.431Z,102702.88
2023-04-09T08:24:32.513Z,102704.34
2023-04-09T08:27:02.329Z,102707.78
2023-04-09T08:29:32.376Z,102705.25
2023-04-09T08:32:00.414Z,102707.59
2023-04-09T08:34:28.728Z,102705.78
2023-04-09T08:36:56.981Z,102702.47
2023-04-09T08:39:26.391Z,102706.78
2023-04-09T08:41:57.140Z,102698.19
2023-04-09T08:44:27.998Z,102699.72
2023-04-09T08:46:59.567Z,102698.78
2023-04-09T08:49:27.601Z,102699.81
2023-04-09T08:51:59.414Z,102694.06
2023-04-09T08:54:29.268Z,102707.56
2023-04-09T08:56:58.963Z,102704.63
2023-04-09T08:59:27.468Z,102700.81
2023-04-09T09:02:09.009Z,102706.19
2023-04-09T09:04:48.538Z,102700.91
2023-04-09T09:07:17.807Z,102704.72
2023-04-09T09:09:56.220Z,102706.03
2023-04-09T09:12:34.775Z,102709.09
2023-04-09T09:15:03.155Z,102714.28
2023-04-09T09:17:31.285Z,102714.81
2023-04-09T09:19:59.623Z,102704.84
2023-04-09T09:22:27.588Z,102704.28
2023-04-09T09:24:58.474Z,102709.91
2023-04-09T09:27:33.710Z,102712.03
2023-04-09T09:30:03.469Z,102705.44
2023-04-09T09:32:31.541Z,102707.72
2023-04-09T09:35:02.549Z,102707.28
2023-04-09T09:37:32.151Z,102709.66
2023-04-09T09:40:02.049Z,102702.31
2023-04-09T09:42:30.409Z,102692.72
2023-04-09T09:44:59.885Z,102703.59
2023-04-09T09:47:29.537Z,102700.97
2023-04-09T09:49:57.573Z,102702.56
2023-04-09T09:52:27.147Z,102702.06
2023-04-09T09:54:56.832Z,102700.38
2023-04-09T09:57:29.386Z,102704.31
2023-04-09T10:00:02.606Z,102703.31
2023-04-09T10:02:38.681Z,102692.91
2023-04-09T10:05:09.483Z,102691.31
2023-04-09T10:07:38.626Z,102695.03
2023-04-09T10:10:08.600Z,102696.91
2023-04-09T10:12:38.491Z,102691.84
2023-04-09T10:15:07.315Z,102687.53
2023-04-09T10:17:35.652Z,102684.34
2023-04-09T10:20:17.153Z,102688.59
2023-04-09T10:22:48.905Z,102694.16
2023-04-09T10:25:17.724Z,102693.66
2023-04-09T10:27:49.309Z,102671.97
2023-04-09T10:30:35.439Z,102685.34
2023-04-09T10:33:15.047Z,102675.16
2023-04-09T10:35:47.930Z,102682.56
2023-04-09T10:38:18.582Z,102681.41
2023-04-09T10:40:51.025Z,102682.00
2023-04-09T10:43:23.701Z,102663.97
2023-04-09T10:45:55.279Z,102679.88
2023-04-09T10:48:26.303Z,102676.44
2023-04-09T10:50:54.595Z,102672.81
2023-04-09T10:53:24.976Z,102685.91
2023-04-09T10:55:54.979Z,102676.19
2023-04-09T10:58:24.335Z,102671.84
2023-04-09T11:00:52.969Z,102671.84
2023-04-09T11:03:27.664Z,102668.69
2023-04-09T11:06:03.860Z,102668.91
2023-04-09T11:08:33.952Z,102671.09
2023-04-09T11:11:03.635Z,102665.00
2023-04-09T11:13:34.380Z,102660.94
2023-04-09T11:16:04.225Z,102655.78
2023-04-09T11:18:34.737Z,102656.22
2023-04-09T11:21:04.806Z,102647.84
2023-04-09T11:23:33.323Z,102649.47
2023-04-09T11:26:02.182Z,102646.06
2023-04-09T11:28:30.323Z,102649.47
2023-04-09T11:30:59.794Z,102660.31
2023-04-09T11:33:34.559Z,102649.31
2023-04-09T11:36:05.793Z,102646.63
2023-04-09T11:38:34.431Z,102649.97
2023-04-09T11:41:03.367Z,102647.56
2023-04-09T11:43:32.399Z,102658.03
2023-04-09T11:46:02.332Z,102645.59
2023-04-09T11:48:31.940Z,102648.97
2023-04-09T11:51:00.314Z,102641.34
2023-04-09T11:53:35.286Z,102649.63
2023-04-09T11:56:03.421Z,102645.13
2023-04-09T11:58:32.296Z,102642.22
2023-04-09T12:01:01.752Z,102634.22
2023-04-09T12:03:33.873Z,102633.94
2023-04-09T12:06:04.027Z,102639.50
2023-04-09T12:08:34.739Z,102636.81
2023-04-09T12:11:10.575Z,102631.94
2023-04-09T12:13:43.081Z,102629.91
2023-04-09T12:16:13.195Z,102629.09
2023-04-09T12:18:41.917Z,102618.59
2023-04-09T12:21:10.297Z,102617.31
2023-04-09T12:23:38.422Z,102615.06
2023-04-09T12:26:06.511Z,102613.84
2023-04-09T12:28:34.605Z,102607.56
2023-04-09T12:31:03.620Z,102608.69
2023-04-09T12:33:34.106Z,102610.09
2023-04-09T12:36:03.441Z,102604.06
2023-04-09T12:38:32.255Z,102600.59
2023-04-09T12:41:01.416Z,102601.44
2023-04-09T12:43:29.641Z,102598.28
2023-04-09T12:45:58.072Z,102593.44
2023-04-09T12:48:26.558Z,102591.97
2023-04-09T12:50:55.969Z,102594.66
2023-04-09T12:53:23.978Z,102594.56
2023-04-09T12:55:51.976Z,102596.09
2023-04-09T12:58:19.887Z,102600.16
2023-04-09T13:00:47.759Z,102594.41
2023-04-09T13:03:16.844Z,102585.81
2023-04-09T13:05:45.250Z,102587.91
2023-04-09T13:08:14.544Z,102586.97
2023-04-09T13:10:42.589Z,102585.66
2023-04-09T13:13:13.001Z,102573.56
2023-04-09T13:15:43.336Z,102571.56
2023-04-09T13:18:11.404Z,102563.72
2023-04-09T13:20:39.447Z,102563.09
2023-04-09T13:23:07.666Z,102562.72
2023-04-09T13:25:37.161Z,102560.94
2023-04-09T13:28:05.245Z,102564.69
2023-04-09T13:30:33.435Z,102564.66
2023-04-09T13:33:01.530Z,102547.91
2023-04-09T13:35:29.624Z,102549.53
2023-04-09T13:37:58.845Z,102553.06
2023-04-09T13:40:26.845Z,102544.28
2023-04-09T13:42:56.173Z,102546.50
2023-04-09T13:45:24.552Z,102549.28
2023-04-09T13:47:52.639Z,102547.88
2023-04-09T13:50:21.662Z,102546.28
2023-04-09T13:52:49.668Z,102547.81
2023-04-09T13:55:17.653Z,102532.81
2023-04-09T13:57:45.880Z,102543.09
2023-04-09T14:00:15.812Z,102536.75
2023-04-09T14:02:44.018Z,102533.91
2023-04-09T14:05:12.591Z,102531.56
2023-04-09T14:07:40.577Z,102531.75
2023-04-09T14:10:09.675Z,102527.56
2023-04-09T14:12:37.652Z,102515.16
2023-04-09T14:15:06.485Z,102519.97
2023-04-09T14:17:35.764Z,102522.91
2023-04-09T14:20:04.700Z,102520.34
2023-04-09T14:22:32.676Z,102520.09
2023-04-09T14:25:00.776Z,102516.13
2023-04-09T14:27:28.791Z,102519.59
2023-04-09T14:29:56.834Z,102525.16
2023-04-09T14:32:24.824Z,102524.19
2023-04-09T14:34:54.190Z,102524.09
2023-04-09T14:37:22.466Z,102522.03
2023-04-09T14:39:50.502Z,102525.91
2023-04-09T14:42:19.099Z,102524.50
2023-04-09T14:44:47.161Z,102518.41
2023-04-09T14:47:15.121Z,102516.31
2023-04-09T14:49:43.128Z,102514.72
2023-04-09T14:52:12.524Z,102510.75
2023-04-09T14:54:40.699Z,102514.50
2023-04-09T14:57:08.617Z,102514.81
2023-04-09T14:59:38.313Z,102506.00
2023-04-09T15:02:06.732Z,102495.22
2023-04-09T15:04:35.026Z,102496.91
2023-04-09T15:07:03.240Z,102497.06
2023-04-09T15:09:32.822Z,102493.81
2023-04-09T15:12:01.506Z,102490.16
2023-04-09T15:14:30.646Z,102487.63
2023-04-09T15:16:58.561Z,102479.63
2023-04-09T15:19:26.693Z,102478.00
2023-04-09T15:21:54.608Z,102467.47
2023-04-09T15:24:22.788Z,102468.97
2023-04-09T15:26:52.165Z,102476.34
2023-04-09T15:29:20.102Z,102483.34
2023-04-09T15:31:49.089Z,102477.19
2023-04-09T15:34:17.220Z,102475.88
2023-04-09T15:36:46.291Z,102473.31
2023-04-09T15:39:14.306Z,102470.56
2023-04-09T15:41:42.332Z,102460.78
2023-04-09T15:44:12.268Z,102479.19
2023-04-09T15:46:40.260Z,102482.03
2023-04-09T15:49:08.851Z,102481.06
2023-04-09T15:51:36.882Z,102477.84
2023-04-09T15:54:05.590Z,102477.72
2023-04-09T15:56:35.988Z,102468.84
2023-04-09T15:59:05.475Z,102469.41
2023-04-09T16:01:35.243Z,102458.41
2023-04-09T16:04:04.791Z,102464.03
2023-04-09T16:06:33.178Z,102460.78
2023-04-09T16:09:01.133Z,102465.44
2023-04-09T16:11:29.196Z,102464.09
2023-04-09T16:13:59.330Z,102460.38
2023-04-09T16:16:27.546Z,102455.72
2023-04-09T16:18:57.564Z,102456.50
2023-04-09T16:21:25.910Z,102458.66
2023-04-09T16:23:53.836Z,102455.56
2023-04-09T16:26:21.883Z,102454.06
2023-04-09T16:28:50.280Z,102455.56
2023-04-09T16:31:18.604Z,102455.41
2023-04-09T16:33:46.658Z,102458.03
2023-04-09T16:36:16.549Z,102454.69
2023-04-09T16:38:44.576Z,102448.91
2023-04-09T16:41:12.493Z,102453.31
2023-04-09T16:43:40.414Z,102456.00
2023-04-09T16:46:08.433Z,102449.28
2023-04-09T16:48:41.571Z,102452.97
2023-04-09T16:51:09.636Z,102448.47
2023-04-09T16:53:40.112Z,102448.25
2023-04-09T16:56:09.336Z,102450.44
2023-04-09T16:58:37.853Z,102454.44
2023-04-09T17:01:06.620Z,102443.41
2023-04-09T17:03:34.878Z,102448.84
2023-04-09T17:06:04.455Z,102447.31
2023-04-09T17:08:32.414Z,102447.63
2023-04-09T17:11:03.211Z,102442.69
2023-04-09T17:13:35.143Z,102455.97
2023-04-09T17:16:03.751Z,102457.91
2023-04-09T17:18:31.790Z,102455.69
2023-04-09T17:21:00.021Z,102460.31
2023-04-09T17:23:30.407Z,102456.88
2023-04-09T17:25:58.285Z,102453.81
2023-04-09T17:28:29.782Z,102459.94
2023-04-09T17:30:57.854Z,102455.16
2023-04-09T17:33:26.136Z,102447.63
2023-04-09T17:35:54.080Z,102452.28
2023-04-09T17:38:24.902Z,102456.34
2023-04-09T17:40:54.611Z,102451.44
2023-04-09T17:43:22.805Z,102452.59
2023-04-09T17:45:52.342Z,102453.44
2023-04-09T17:48:20.217Z,102453.88
2023-04-09T17:50:48.568Z,102454.75
2023-04-09T17:53:16.635Z,102456.63
2023-04-09T17:55:48.646Z,102462.38
2023-04-09T17:58:16.841Z,102457.22
2023-04-09T18:00:44.709Z,102453.31
2023-04-09T18:03:14.594Z,102456.81
2023-04-09T18:05:43.215Z,102462.66
2023-04-09T18:08:11.485Z,102464.41
2023-04-09T18:10:39.374Z,102465.16
2023-04-09T18:13:07.394Z,102475.63
2023-04-09T18:15:35.537Z,102472.16
2023-04-09T18:18:03.548Z,102467.22
2023-04-09T18:20:33.184Z,102469.63
2023-04-09T18:23:01.085Z,102474.28
2023-04-09T18:25:29.389Z,102470.06
2023-04-09T18:27:58.004Z,102472.50
2023-04-09T18:30:26.383Z,102462.97
2023-04-09T18:32:54.351Z,102468.47
2023-04-09T18:35:22.694Z,102469.25
2023-04-09T18:37:51.971Z,102464.19
2023-04-09T18:40:20.308Z,102462.31
2023-04-09T18:42:51.776Z,102459.88
2023-04-09T18:45:21.192Z,102469.47
2023-04-09T18:47:49.265Z,102476.06
2023-04-09T18:50:18.733Z,102483.44
2023-04-09T18:52:46.642Z,102479.59
2023-04-09T18:55:16.832Z,102481.06
2023-04-09T18:57:45.281Z,102479.81
2023-04-09T19:00:14.091Z,102484.31
2023-04-09T19:02:42.856Z,102484.47
2023-04-09T19:05:11.368Z,102486.19
2023-04-09T19:07:39.511Z,102490.78
2023-04-09T19:10:08.284Z,102494.03
2023-04-09T19:12:38.458Z,102501.09
2023-04-09T19:15:07.046Z,102512.97
2023-04-09T19:17:34.971Z,102514.22
2023-04-09T19:20:03.083Z,102517.78
2023-04-09T19:22:31.152Z,102513.31
2023-04-09T19:24:59.493Z,102513.19
2023-04-09T19:27:28.217Z,102506.97
2023-04-09T19:29:59.948Z,102515.84
2023-04-09T19:32:28.797Z,102514.84
2023-04-09T19:34:56.827Z,102512.19
2023-04-09T19:37:28.313Z,102518.41
2023-04-09T19:39:56.410Z,102520.16
2023-04-09T19:42:24.678Z,102519.34
2023-04-09T19:44:52.613Z,102530.59
2023-04-09T19:47:22.265Z,102524.91
2023-04-09T19:49:51.326Z,102521.25
2023-04-09T19:52:19.862Z,102522.53
2023-04-09T19:54:47.931Z,102519.19
2023-04-09T19:57:16.560Z,102518.81
2023-04-09T19:59:44.438Z,102513.53
2023-04-09T20:02:12.696Z,102514.28
2023-04-09T20:04:42.089Z,102509.44
2023-04-09T20:07:10.127Z,102507.25
2023-04-09T20:09:41.472Z,102508.78
2023-04-09T20:12:09.914Z,102508.59
2023-04-09T20:14:39.441Z,102505.56
2023-04-09T20:17:09.040Z,102507.97
2023-04-09T20:19:38.021Z,102509.19
2023-04-09T20:22:07.614Z,102513.69
2023-04-09T20:24:35.665Z,102511.84
2023-04-09T20:27:03.916Z,102500.41
2023-04-09T20:29:32.020Z,102506.06
2023-04-09T20:32:00.219Z,102507.97
2023-04-09T20:34:31.771Z,102502.56
2023-04-09T20:37:00.436Z,102492.09
2023-04-09T20:39:32.742Z,102501.63
2023-04-09T20:42:00.675Z,102493.41
2023-04-09T20:44:32.271Z,102494.25
2023-04-09T20:47:00.239Z,102492.63
2023-04-09T20:49:29.518Z,102488.97
2023-04-09T20:51:57.414Z,102490.16
2023-04-09T20:54:25.368Z,102492.19
2023-04-09T20:56:55.183Z,102494.66
2023-04-09T20:59:24.953Z,102489.53
2023-04-09T21:01:53.955Z,102498.56
2023-04-09T21:04:22.252Z,102492.31
2023-04-09T21:06:50.518Z,102497.94
2023-04-09T21:09:18.449Z,102486.22
2023-04-09T21:11:46.376Z,102490.00
2023-04-09T21:14:15.940Z,102486.63
2023-04-09T21:16:44.038Z,102485.81
2023-04-09T21:19:11.988Z,102486.75
2023-04-09T21:21:39.985Z,102485.69
2023-04-09T21:24:08.042Z,102480.41
2023-04-09T21:26:49.510Z,102480.47
2023-04-09T21:29:21.612Z,102486.09
2023-04-09T21:31:50.211Z,102483.44
2023-04-09T21:34:18.133Z,102481.75
2023-04-09T21:36:46.473Z,102478.38
2023-04-09T21:39:14.571Z,102479.44
2023-04-09T21:41:42.546Z,102486.50
2023-04-09T21:44:11.256Z,102494.31
2023-04-09T21:46:41.826Z,102491.75
2023-04-09T21:49:09.904Z,102488.34
2023-04-09T21:51:37.911Z,102487.50
2023-04-09T21:54:06.420Z,102493.97
2023-04-09T21:56:35.536Z,102488.47
2023-04-09T21:59:03.673Z,102492.97
2023-04-09T22:01:34.807Z,102490.41
2023-04-09T22:04:04.745Z,102486.84
2023-04-09T22:06:33.003Z,102485.41
2023-04-09T22:09:01.847Z,102486.19
2023-04-09T22:11:31.084Z,102485.53
2023-04-09T22:13:59.050Z,102481.19
2023-04-09T22:16:28.144Z,102479.59
2023-04-09T22:18:56.840Z,102476.03
2023-04-09T22:21:26.834Z,102476.97
2023-04-09T22:23:54.729Z,102484.03
2023-04-09T22:26:22.792Z,102479.75
2023-04-09T22:28:51.804Z,102472.53
2023-04-09T22:31:21.128Z,102476.19
2023-04-09T22:33:49.255Z,102479.13
2023-04-09T22:36:17.168Z,102475.63
2023-04-09T22:38:46.508Z,102474.91
2023-04-09T22:41:16.059Z,102472.53
2023-04-09T22:43:43.959Z,102477.63
2023-04-09T22:46:11.951Z,102474.91
2023-04-09T22:48:44.525Z,102472.72
2023-04-09T22:51:13.018Z,102474.34
2023-04-09T22:53:41.492Z,102471.75
2023-04-09T22:56:11.148Z,102473.53
2023-04-09T22:58:39.343Z,102472.03
2023-04-09T23:01:07.912Z,102467.28
2023-04-09T23:03:36.041Z,102470.78
2023-04-09T23:06:04.216Z,102458.44
2023-04-09T23:08:32.589Z,102472.53
2023-04-09T23:11:01.193Z,102465.50
2023-04-09T23:13:30.592Z,102469.00
2023-04-09T23:15:58.575Z,102464.72
2023-04-09T23:18:26.660Z,102459.38
2023-04-09T23:20:54.829Z,102470.94
2023-04-09T23:23:24.916Z,102466.47
2023-04-09T23:25:53.172Z,102471.75
2023-04-09T23:28:21.176Z,102464.53
2023-04-09T23:30:51.431Z,102475.13
2023-04-09T23:33:19.569Z,102469.78
2023-04-09T23:35:48.924Z,102468.81
2023-04-09T23:38:26.267Z,102460.81
2023-04-09T23:41:00.484Z,102469.78
2023-04-09T23:43:28.765Z,102476.84
2023-04-09T23:45:58.263Z,102474.19
2023-04-09T23:48:26.521Z,102474.97
2023-04-09T23:50:55.873Z,102474.91
2023-04-09T23:53:24.289Z,102473.25
2023-04-09T23:55:52.760Z,102462.50
2023-04-09T23:58:21.519Z,102469.75
